sensor_id;sensor_type;location;lat;lon;timestamp;P1;durP1;ratioP1;P2;durP2;ratioP2
40623;SDS011;26325;48.594;11.650;2022-12-18T00:01:22;59.25;;;34.38;;
40623;SDS011;26325;48.594;11.650;2022-12-18T00:03:51;57.92;;;33.67;;
40623;SDS011;26325;48.594;11.650;2022-12-18T00:06:19;60.08;;;34.70;;
40623;SDS011;26325;48.594;11.650;2022-12-18T00:08:45;56.50;;;32.88;;
40623;SDS011;26325;48.594;11.650;2022-12-18T00:11:16;56.00;;;32.92;;
40623;SDS011;26325;48.594;11.650;2022-12-18T00:13:47;58.72;;;32.28;;
40623;SDS011;26325;48.594;11.650;2022-12-18T00:16:16;52.42;;;30.98;;
40623;SDS011;26325;48.594;11.650;2022-12-18T00:18:47;54.08;;;32.30;;
40623;SDS011;26325;48.594;11.650;2022-12-18T00:21:14;55.42;;;32.72;;
40623;SDS011;26325;48.594;11.650;2022-12-18T00:23:45;53.10;;;32.15;;
40623;SDS011;26325;48.594;11.650;2022-12-18T00:26:21;53.33;;;32.13;;
40623;SDS011;26325;48.594;11.650;2022-12-18T00:28:49;53.50;;;31.63;;
40623;SDS011;26325;48.594;11.650;2022-12-18T00:31:19;51.35;;;31.40;;
40623;SDS011;26325;48.594;11.650;2022-12-18T00:33:46;54.75;;;32.03;;
40623;SDS011;26325;48.594;11.650;2022-12-18T00:36:15;51.58;;;31.42;;
40623;SDS011;26325;48.594;11.650;2022-12-18T00:38:45;53.58;;;30.75;;
40623;SDS011;26325;48.594;11.650;2022-12-18T00:41:13;51.40;;;30.60;;
40623;SDS011;26325;48.594;11.650;2022-12-18T00:44:02;49.42;;;29.38;;
40623;SDS011;26325;48.594;11.650;2022-12-18T00:46:31;51.45;;;30.23;;
40623;SDS011;26325;48.594;11.650;2022-12-18T00:48:57;43.78;;;26.38;;
40623;SDS011;26325;48.594;11.650;2022-12-18T00:51:24;45.90;;;26.65;;
40623;SDS011;26325;48.594;11.650;2022-12-18T00:53:50;42.45;;;26.10;;
40623;SDS011;26325;48.594;11.650;2022-12-18T00:56:17;42.13;;;25.27;;
40623;SDS011;26325;48.594;11.650;2022-12-18T00:58:43;42.17;;;25.65;;
40623;SDS011;26325;48.594;11.650;2022-12-18T01:01:09;43.30;;;25.02;;
40623;SDS011;26325;48.594;11.650;2022-12-18T01:03:34;39.80;;;24.60;;
40623;SDS011;26325;48.594;11.650;2022-12-18T01:06:06;39.58;;;23.52;;
40623;SDS011;26325;48.594;11.650;2022-12-18T01:08:33;38.67;;;22.55;;
40623;SDS011;26325;48.594;11.650;2022-12-18T01:10:58;39.28;;;23.00;;
40623;SDS011;26325;48.594;11.650;2022-12-18T01:13:24;42.05;;;24.20;;
40623;SDS011;26325;48.594;11.650;2022-12-18T01:15:50;39.03;;;22.65;;
40623;SDS011;26325;48.594;11.650;2022-12-18T01:18:16;40.58;;;23.33;;
40623;SDS011;26325;48.594;11.650;2022-12-18T01:20:42;39.60;;;23.48;;
40623;SDS011;26325;48.594;11.650;2022-12-18T01:23:07;39.20;;;23.48;;
40623;SDS011;26325;48.594;11.650;2022-12-18T01:25:35;39.42;;;23.25;;
40623;SDS011;26325;48.594;11.650;2022-12-18T01:28:02;40.83;;;23.77;;
40623;SDS011;26325;48.594;11.650;2022-12-18T01:30:28;37.38;;;22.83;;
40623;SDS011;26325;48.594;11.650;2022-12-18T01:32:53;37.13;;;21.48;;
40623;SDS011;26325;48.594;11.650;2022-12-18T01:35:19;35.00;;;21.02;;
40623;SDS011;26325;48.594;11.650;2022-12-18T01:37:47;38.45;;;22.35;;
40623;SDS011;26325;48.594;11.650;2022-12-18T01:40:15;36.35;;;22.27;;
40623;SDS011;26325;48.594;11.650;2022-12-18T01:42:42;36.83;;;21.63;;
40623;SDS011;26325;48.594;11.650;2022-12-18T01:47:53;39.90;;;23.23;;
40623;SDS011;26325;48.594;11.650;2022-12-18T01:52:55;36.78;;;22.08;;
40623;SDS011;26325;48.594;11.650;2022-12-18T01:55:25;37.17;;;22.13;;
40623;SDS011;26325;48.594;11.650;2022-12-18T01:57:54;38.22;;;21.40;;
40623;SDS011;26325;48.594;11.650;2022-12-18T02:00:22;38.08;;;21.42;;
40623;SDS011;26325;48.594;11.650;2022-12-18T02:02:49;33.88;;;20.38;;
40623;SDS011;26325;48.594;11.650;2022-12-18T02:05:25;36.28;;;21.17;;
40623;SDS011;26325;48.594;11.650;2022-12-18T02:08:22;38.42;;;21.80;;
40623;SDS011;26325;48.594;11.650;2022-12-18T02:29:02;36.38;;;22.00;;
40623;SDS011;26325;48.594;11.650;2022-12-18T02:31:34;39.13;;;22.45;;
40623;SDS011;26325;48.594;11.650;2022-12-18T02:34:04;36.10;;;21.58;;
40623;SDS011;26325;48.594;11.650;2022-12-18T02:36:39;40.88;;;22.67;;
40623;SDS011;26325;48.594;11.650;2022-12-18T02:39:07;40.15;;;22.40;;
40623;SDS011;26325;48.594;11.650;2022-12-18T02:41:36;42.47;;;23.42;;
40623;SDS011;26325;48.594;11.650;2022-12-18T02:44:08;41.55;;;24.27;;
40623;SDS011;26325;48.594;11.650;2022-12-18T02:46:41;42.08;;;23.10;;
40623;SDS011;26325;48.594;11.650;2022-12-18T02:49:21;42.22;;;23.80;;
40623;SDS011;26325;48.594;11.650;2022-12-18T03:00:53;39.92;;;22.77;;
40623;SDS011;26325;48.594;11.650;2022-12-18T03:09:02;39.75;;;23.35;;
40623;SDS011;26325;48.594;11.650;2022-12-18T03:11:34;40.17;;;23.13;;
40623;SDS011;26325;48.594;11.650;2022-12-18T03:14:24;38.13;;;22.63;;
40623;SDS011;26325;48.594;11.650;2022-12-18T03:16:53;37.70;;;22.73;;
40623;SDS011;26325;48.594;11.650;2022-12-18T03:19:24;41.47;;;23.70;;
40623;SDS011;26325;48.594;11.650;2022-12-18T03:21:55;40.33;;;22.98;;
40623;SDS011;26325;48.594;11.650;2022-12-18T03:24:22;37.80;;;23.13;;
40623;SDS011;26325;48.594;11.650;2022-12-18T03:26:54;36.45;;;21.45;;
40623;SDS011;26325;48.594;11.650;2022-12-18T03:29:27;34.17;;;20.50;;
40623;SDS011;26325;48.594;11.650;2022-12-18T03:32:05;34.08;;;20.77;;
40623;SDS011;26325;48.594;11.650;2022-12-18T03:34:37;33.70;;;20.00;;
40623;SDS011;26325;48.594;11.650;2022-12-18T03:37:05;33.20;;;20.50;;
40623;SDS011;26325;48.594;11.650;2022-12-18T03:39:35;35.90;;;20.85;;
40623;SDS011;26325;48.594;11.650;2022-12-18T03:42:15;31.90;;;20.33;;
40623;SDS011;26325;48.594;11.650;2022-12-18T03:50:25;33.75;;;20.10;;
40623;SDS011;26325;48.594;11.650;2022-12-18T03:55:40;32.28;;;20.13;;
40623;SDS011;26325;48.594;11.650;2022-12-18T03:58:07;32.33;;;19.48;;
40623;SDS011;26325;48.594;11.650;2022-12-18T04:00:39;32.80;;;20.05;;
40623;SDS011;26325;48.594;11.650;2022-12-18T04:03:05;35.17;;;20.85;;
40623;SDS011;26325;48.594;11.650;2022-12-18T04:05:36;33.47;;;20.77;;
40623;SDS011;26325;48.594;11.650;2022-12-18T04:08:02;37.20;;;20.95;;
40623;SDS011;26325;48.594;11.650;2022-12-18T04:10:30;35.45;;;20.58;;
40623;SDS011;26325;48.594;11.650;2022-12-18T04:12:57;35.20;;;20.67;;
40623;SDS011;26325;48.594;11.650;2022-12-18T04:15:23;36.83;;;21.67;;
40623;SDS011;26325;48.594;11.650;2022-12-18T04:17:49;39.42;;;22.63;;
40623;SDS011;26325;48.594;11.650;2022-12-18T04:20:16;34.97;;;20.92;;
40623;SDS011;26325;48.594;11.650;2022-12-18T04:22:42;34.55;;;20.73;;
40623;SDS011;26325;48.594;11.650;2022-12-18T04:25:08;33.88;;;20.40;;
40623;SDS011;26325;48.594;11.650;2022-12-18T04:27:36;36.97;;;23.00;;
40623;SDS011;26325;48.594;11.650;2022-12-18T04:30:04;40.08;;;24.55;;
40623;SDS011;26325;48.594;11.650;2022-12-18T04:32:33;38.65;;;22.45;;
40623;SDS011;26325;48.594;11.650;2022-12-18T04:34:59;40.55;;;23.52;;
40623;SDS011;26325;48.594;11.650;2022-12-18T04:37:25;36.70;;;22.33;;
40623;SDS011;26325;48.594;11.650;2022-12-18T04:39:50;38.05;;;21.88;;
40623;SDS011;26325;48.594;11.650;2022-12-18T04:42:16;37.67;;;23.10;;
40623;SDS011;26325;48.594;11.650;2022-12-18T04:44:41;37.40;;;22.17;;
40623;SDS011;26325;48.594;11.650;2022-12-18T04:47:09;36.20;;;22.10;;
40623;SDS011;26325;48.594;11.650;2022-12-18T04:49:35;38.90;;;23.25;;
40623;SDS011;26325;48.594;11.650;2022-12-18T04:52:03;36.78;;;22.45;;
40623;SDS011;26325;48.594;11.650;2022-12-18T04:54:31;37.72;;;22.75;;
40623;SDS011;26325;48.594;11.650;2022-12-18T04:56:59;37.40;;;22.13;;
40623;SDS011;26325;48.594;11.650;2022-12-18T04:59:24;32.80;;;20.67;;
40623;SDS011;26325;48.594;11.650;2022-12-18T05:01:50;34.72;;;21.08;;
40623;SDS011;26325;48.594;11.650;2022-12-18T05:04:15;34.22;;;20.85;;
40623;SDS011;26325;48.594;11.650;2022-12-18T05:06:41;35.65;;;20.42;;
40623;SDS011;26325;48.594;11.650;2022-12-18T05:09:06;33.13;;;20.48;;
40623;SDS011;26325;48.594;11.650;2022-12-18T05:11:32;32.60;;;19.88;;
40623;SDS011;26325;48.594;11.650;2022-12-18T05:13:58;31.90;;;19.13;;
40623;SDS011;26325;48.594;11.650;2022-12-18T05:16:26;32.65;;;19.88;;
40623;SDS011;26325;48.594;11.650;2022-12-18T05:18:51;33.10;;;19.80;;
40623;SDS011;26325;48.594;11.650;2022-12-18T05:21:17;32.95;;;19.67;;
40623;SDS011;26325;48.594;11.650;2022-12-18T05:23:45;33.35;;;19.92;;
40623;SDS011;26325;48.594;11.650;2022-12-18T05:26:14;37.17;;;22.15;;
40623;SDS011;26325;48.594;11.650;2022-12-18T05:28:41;33.75;;;20.70;;
40623;SDS011;26325;48.594;11.650;2022-12-18T05:31:07;34.83;;;20.92;;
40623;SDS011;26325;48.594;11.650;2022-12-18T05:33:34;33.60;;;19.70;;
40623;SDS011;26325;48.594;11.650;2022-12-18T05:36:05;32.83;;;20.02;;
40623;SDS011;26325;48.594;11.650;2022-12-18T05:38:32;31.17;;;19.13;;
40623;SDS011;26325;48.594;11.650;2022-12-18T05:40:59;31.08;;;19.50;;
40623;SDS011;26325;48.594;11.650;2022-12-18T05:43:28;32.70;;;19.67;;
40623;SDS011;26325;48.594;11.650;2022-12-18T05:45:54;32.17;;;20.10;;
40623;SDS011;26325;48.594;11.650;2022-12-18T05:48:22;30.15;;;18.35;;
40623;SDS011;26325;48.594;11.650;2022-12-18T05:50:49;31.88;;;20.50;;
40623;SDS011;26325;48.594;11.650;2022-12-18T05:53:17;31.08;;;19.25;;
40623;SDS011;26325;48.594;11.650;2022-12-18T05:55:44;33.35;;;20.15;;
40623;SDS011;26325;48.594;11.650;2022-12-18T05:58:11;31.80;;;18.73;;
40623;SDS011;26325;48.594;11.650;2022-12-18T06:00:39;29.65;;;18.38;;
40623;SDS011;26325;48.594;11.650;2022-12-18T06:03:07;34.00;;;20.38;;
40623;SDS011;26325;48.594;11.650;2022-12-18T06:05:39;30.08;;;18.77;;
40623;SDS011;26325;48.594;11.650;2022-12-18T06:08:07;31.08;;;19.60;;
40623;SDS011;26325;48.594;11.650;2022-12-18T06:10:33;32.75;;;19.15;;
40623;SDS011;26325;48.594;11.650;2022-12-18T06:13:01;30.27;;;19.23;;
40623;SDS011;26325;48.594;11.650;2022-12-18T06:15:29;33.42;;;19.45;;
40623;SDS011;26325;48.594;11.650;2022-12-18T06:17:55;27.65;;;17.58;;
40623;SDS011;26325;48.594;11.650;2022-12-18T06:20:25;30.73;;;18.48;;
40623;SDS011;26325;48.594;11.650;2022-12-18T06:22:53;26.98;;;17.92;;
40623;SDS011;26325;48.594;11.650;2022-12-18T06:25:18;28.90;;;18.10;;
40623;SDS011;26325;48.594;11.650;2022-12-18T06:27:47;28.52;;;17.63;;
40623;SDS011;26325;48.594;11.650;2022-12-18T06:30:14;29.02;;;17.75;;
40623;SDS011;26325;48.594;11.650;2022-12-18T06:32:40;29.42;;;18.13;;
40623;SDS011;26325;48.594;11.650;2022-12-18T06:35:06;30.83;;;18.88;;
40623;SDS011;26325;48.594;11.650;2022-12-18T06:37:32;34.72;;;19.52;;
40623;SDS011;26325;48.594;11.650;2022-12-18T06:39:59;30.08;;;19.40;;
40623;SDS011;26325;48.594;11.650;2022-12-18T06:42:26;30.23;;;18.88;;
40623;SDS011;26325;48.594;11.650;2022-12-18T06:44:57;32.03;;;19.67;;
40623;SDS011;26325;48.594;11.650;2022-12-18T06:47:22;31.88;;;19.25;;
40623;SDS011;26325;48.594;11.650;2022-12-18T06:49:48;32.20;;;19.48;;
40623;SDS011;26325;48.594;11.650;2022-12-18T06:52:14;34.58;;;20.42;;
40623;SDS011;26325;48.594;11.650;2022-12-18T06:54:42;32.15;;;20.02;;
40623;SDS011;26325;48.594;11.650;2022-12-18T06:57:07;35.15;;;20.88;;
40623;SDS011;26325;48.594;11.650;2022-12-18T06:59:33;32.58;;;19.63;;
40623;SDS011;26325;48.594;11.650;2022-12-18T07:01:58;33.13;;;19.52;;
40623;SDS011;26325;48.594;11.650;2022-12-18T07:04:31;32.78;;;19.35;;
40623;SDS011;26325;48.594;11.650;2022-12-18T07:06:57;32.20;;;20.05;;
40623;SDS011;26325;48.594;11.650;2022-12-18T07:09:23;29.52;;;19.20;;
40623;SDS011;26325;48.594;11.650;2022-12-18T07:11:48;30.88;;;19.45;;
40623;SDS011;26325;48.594;11.650;2022-12-18T07:14:14;28.27;;;18.08;;
40623;SDS011;26325;48.594;11.650;2022-12-18T07:16:40;27.20;;;17.20;;
40623;SDS011;26325;48.594;11.650;2022-12-18T07:19:05;41.28;;;24.42;;
40623;SDS011;26325;48.594;11.650;2022-12-18T07:21:33;27.17;;;17.85;;
40623;SDS011;26325;48.594;11.650;2022-12-18T07:23:59;29.67;;;18.73;;
40623;SDS011;26325;48.594;11.650;2022-12-18T07:26:26;28.80;;;18.58;;
40623;SDS011;26325;48.594;11.650;2022-12-18T07:28:55;26.92;;;17.20;;
40623;SDS011;26325;48.594;11.650;2022-12-18T07:31:23;27.60;;;17.77;;
40623;SDS011;26325;48.594;11.650;2022-12-18T07:33:49;26.98;;;17.58;;
40623;SDS011;26325;48.594;11.650;2022-12-18T07:36:19;29.52;;;17.55;;
40623;SDS011;26325;48.594;11.650;2022-12-18T07:38:49;29.58;;;18.13;;
40623;SDS011;26325;48.594;11.650;2022-12-18T07:41:18;25.70;;;17.40;;
40623;SDS011;26325;48.594;11.650;2022-12-18T07:43:44;29.40;;;18.80;;
40623;SDS011;26325;48.594;11.650;2022-12-18T07:46:10;29.35;;;18.50;;
40623;SDS011;26325;48.594;11.650;2022-12-18T07:48:42;28.83;;;18.98;;
40623;SDS011;26325;48.594;11.650;2022-12-18T07:51:08;28.15;;;18.85;;
40623;SDS011;26325;48.594;11.650;2022-12-18T07:53:40;28.65;;;18.77;;
40623;SDS011;26325;48.594;11.650;2022-12-18T07:56:10;27.35;;;17.77;;
40623;SDS011;26325;48.594;11.650;2022-12-18T07:58:37;29.08;;;19.08;;
40623;SDS011;26325;48.594;11.650;2022-12-18T08:01:07;28.35;;;18.80;;
40623;SDS011;26325;48.594;11.650;2022-12-18T08:03:34;30.60;;;18.98;;
40623;SDS011;26325;48.594;11.650;2022-12-18T08:06:04;29.58;;;18.75;;
40623;SDS011;26325;48.594;11.650;2022-12-18T08:08:33;29.50;;;19.23;;
40623;SDS011;26325;48.594;11.650;2022-12-18T08:11:01;31.58;;;20.15;;
40623;SDS011;26325;48.594;11.650;2022-12-18T08:13:29;29.77;;;19.23;;
40623;SDS011;26325;48.594;11.650;2022-12-18T08:16:02;30.77;;;20.05;;
40623;SDS011;26325;48.594;11.650;2022-12-18T08:18:31;28.65;;;18.05;;
40623;SDS011;26325;48.594;11.650;2022-12-18T08:21:07;28.13;;;18.30;;
40623;SDS011;26325;48.594;11.650;2022-12-18T08:23:37;27.90;;;19.23;;
40623;SDS011;26325;48.594;11.650;2022-12-18T08:26:03;28.13;;;18.23;;
40623;SDS011;26325;48.594;11.650;2022-12-18T08:28:29;29.88;;;19.33;;
40623;SDS011;26325;48.594;11.650;2022-12-18T08:30:54;27.92;;;18.08;;
40623;SDS011;26325;48.594;11.650;2022-12-18T08:33:20;26.45;;;17.77;;
40623;SDS011;26325;48.594;11.650;2022-12-18T08:35:45;27.17;;;17.52;;
40623;SDS011;26325;48.594;11.650;2022-12-18T08:38:13;33.88;;;18.75;;
40623;SDS011;26325;48.594;11.650;2022-12-18T08:40:39;30.80;;;19.58;;
40623;SDS011;26325;48.594;11.650;2022-12-18T08:43:04;28.00;;;18.05;;
40623;SDS011;26325;48.594;11.650;2022-12-18T08:45:51;28.38;;;18.05;;
40623;SDS011;26325;48.594;11.650;2022-12-18T08:48:17;26.90;;;17.95;;
40623;SDS011;26325;48.594;11.650;2022-12-18T08:50:43;26.75;;;17.80;;
40623;SDS011;26325;48.594;11.650;2022-12-18T08:53:08;25.85;;;17.10;;
40623;SDS011;26325;48.594;11.650;2022-12-18T08:55:37;29.15;;;18.42;;
40623;SDS011;26325;48.594;11.650;2022-12-18T08:58:02;26.67;;;18.05;;
40623;SDS011;26325;48.594;11.650;2022-12-18T09:00:30;29.38;;;18.83;;
40623;SDS011;26325;48.594;11.650;2022-12-18T09:02:58;27.70;;;18.27;;
40623;SDS011;26325;48.594;11.650;2022-12-18T09:05:27;30.05;;;18.63;;
40623;SDS011;26325;48.594;11.650;2022-12-18T09:07:52;29.00;;;18.38;;
40623;SDS011;26325;48.594;11.650;2022-12-18T09:10:18;29.92;;;19.30;;
40623;SDS011;26325;48.594;11.650;2022-12-18T09:12:43;27.73;;;17.85;;
40623;SDS011;26325;48.594;11.650;2022-12-18T09:15:09;29.60;;;20.27;;
40623;SDS011;26325;48.594;11.650;2022-12-18T09:17:35;30.48;;;19.90;;
40623;SDS011;26325;48.594;11.650;2022-12-18T09:20:00;26.67;;;18.52;;
40623;SDS011;26325;48.594;11.650;2022-12-18T09:22:26;26.38;;;18.00;;
40623;SDS011;26325;48.594;11.650;2022-12-18T09:24:52;26.15;;;17.63;;
40623;SDS011;26325;48.594;11.650;2022-12-18T09:27:17;27.27;;;18.40;;
40623;SDS011;26325;48.594;11.650;2022-12-18T09:29:43;26.70;;;17.67;;
40623;SDS011;26325;48.594;11.650;2022-12-18T09:32:13;26.75;;;18.42;;
40623;SDS011;26325;48.594;11.650;2022-12-18T09:34:39;27.35;;;18.75;;
40623;SDS011;26325;48.594;11.650;2022-12-18T09:37:07;37.85;;;24.67;;
40623;SDS011;26325;48.594;11.650;2022-12-18T09:39:35;27.58;;;17.83;;
40623;SDS011;26325;48.594;11.650;2022-12-18T09:42:01;26.40;;;18.35;;
40623;SDS011;26325;48.594;11.650;2022-12-18T09:44:41;24.38;;;17.27;;
40623;SDS011;26325;48.594;11.650;2022-12-18T09:47:18;22.30;;;15.02;;
40623;SDS011;26325;48.594;11.650;2022-12-18T09:49:52;21.25;;;14.45;;
40623;SDS011;26325;48.594;11.650;2022-12-18T09:52:28;23.33;;;15.30;;
40623;SDS011;26325;48.594;11.650;2022-12-18T09:57:46;24.00;;;16.02;;
40623;SDS011;26325;48.594;11.650;2022-12-18T10:00:20;23.75;;;16.58;;
40623;SDS011;26325;48.594;11.650;2022-12-18T10:02:47;21.92;;;15.65;;
40623;SDS011;26325;48.594;11.650;2022-12-18T10:05:17;24.80;;;16.48;;
40623;SDS011;26325;48.594;11.650;2022-12-18T10:08:02;23.58;;;16.08;;
40623;SDS011;26325;48.594;11.650;2022-12-18T10:10:56;24.00;;;16.13;;
40623;SDS011;26325;48.594;11.650;2022-12-18T10:13:47;23.20;;;15.98;;
40623;SDS011;26325;48.594;11.650;2022-12-18T10:16:35;24.00;;;15.63;;
40623;SDS011;26325;48.594;11.650;2022-12-18T10:21:59;22.85;;;15.88;;
40623;SDS011;26325;48.594;11.650;2022-12-18T10:27:29;24.25;;;16.90;;
40623;SDS011;26325;48.594;11.650;2022-12-18T10:29:56;25.77;;;17.42;;
40623;SDS011;26325;48.594;11.650;2022-12-18T10:32:27;25.83;;;17.17;;
40623;SDS011;26325;48.594;11.650;2022-12-18T10:34:56;24.17;;;16.98;;
40623;SDS011;26325;48.594;11.650;2022-12-18T10:37:28;26.08;;;17.92;;
40623;SDS011;26325;48.594;11.650;2022-12-18T10:40:14;27.55;;;18.48;;
40623;SDS011;26325;48.594;11.650;2022-12-18T10:42:41;26.95;;;17.42;;
40623;SDS011;26325;48.594;11.650;2022-12-18T10:45:15;25.48;;;17.35;;
40623;SDS011;26325;48.594;11.650;2022-12-18T10:47:46;27.48;;;18.70;;
40623;SDS011;26325;48.594;11.650;2022-12-18T10:50:29;27.35;;;18.42;;
40623;SDS011;26325;48.594;11.650;2022-12-18T10:53:00;27.10;;;17.80;;
40623;SDS011;26325;48.594;11.650;2022-12-18T10:55:38;25.77;;;17.40;;
40623;SDS011;26325;48.594;11.650;2022-12-18T11:01:10;24.77;;;17.85;;
40623;SDS011;26325;48.594;11.650;2022-12-18T11:03:47;22.05;;;16.10;;
40623;SDS011;26325;48.594;11.650;2022-12-18T11:06:26;24.58;;;16.90;;
40623;SDS011;26325;48.594;11.650;2022-12-18T11:09:04;24.60;;;17.23;;
40623;SDS011;26325;48.594;11.650;2022-12-18T11:11:58;25.02;;;17.63;;
40623;SDS011;26325;48.594;11.650;2022-12-18T11:14:32;22.92;;;15.77;;
40623;SDS011;26325;48.594;11.650;2022-12-18T11:17:28;23.23;;;16.63;;
40623;SDS011;26325;48.594;11.650;2022-12-18T11:20:05;22.90;;;16.40;;
40623;SDS011;26325;48.594;11.650;2022-12-18T11:22:53;24.27;;;17.45;;
40623;SDS011;26325;48.594;11.650;2022-12-18T11:25:26;24.95;;;17.10;;
40623;SDS011;26325;48.594;11.650;2022-12-18T11:27:56;23.92;;;16.92;;
40623;SDS011;26325;48.594;11.650;2022-12-18T11:30:27;24.20;;;16.98;;
40623;SDS011;26325;48.594;11.650;2022-12-18T11:35:58;25.52;;;17.00;;
40623;SDS011;26325;48.594;11.650;2022-12-18T11:38:30;25.27;;;18.10;;
40623;SDS011;26325;48.594;11.650;2022-12-18T11:41:26;26.38;;;17.60;;
40623;SDS011;26325;48.594;11.650;2022-12-18T11:44:22;24.27;;;17.15;;
40623;SDS011;26325;48.594;11.650;2022-12-18T11:49:28;24.58;;;17.23;;
40623;SDS011;26325;48.594;11.650;2022-12-18T11:52:23;25.80;;;17.75;;
40623;SDS011;26325;48.594;11.650;2022-12-18T11:55:04;24.52;;;17.10;;
40623;SDS011;26325;48.594;11.650;2022-12-18T11:57:42;24.20;;;17.25;;
40623;SDS011;26325;48.594;11.650;2022-12-18T12:00:22;23.85;;;17.27;;
40623;SDS011;26325;48.594;11.650;2022-12-18T12:03:19;25.42;;;17.38;;
40623;SDS011;26325;48.594;11.650;2022-12-18T12:06:07;24.85;;;17.65;;
40623;SDS011;26325;48.594;11.650;2022-12-18T12:14:28;26.90;;;17.50;;
40623;SDS011;26325;48.594;11.650;2022-12-18T12:23:15;28.05;;;19.58;;
40623;SDS011;26325;48.594;11.650;2022-12-18T12:28:48;25.60;;;17.73;;
40623;SDS011;26325;48.594;11.650;2022-12-18T12:39:59;24.75;;;17.95;;
40623;SDS011;26325;48.594;11.650;2022-12-18T12:42:38;70.05;;;40.72;;
40623;SDS011;26325;48.594;11.650;2022-12-18T12:45:34;26.63;;;18.90;;
40623;SDS011;26325;48.594;11.650;2022-12-18T12:48:06;26.20;;;18.45;;
40623;SDS011;26325;48.594;11.650;2022-12-18T12:50:37;28.85;;;17.75;;
40623;SDS011;26325;48.594;11.650;2022-12-18T12:53:07;26.92;;;16.65;;
40623;SDS011;26325;48.594;11.650;2022-12-18T12:55:41;26.42;;;17.50;;
40623;SDS011;26325;48.594;11.650;2022-12-18T12:58:28;26.40;;;17.50;;
40623;SDS011;26325;48.594;11.650;2022-12-18T13:04:47;25.30;;;17.30;;
40623;SDS011;26325;48.594;11.650;2022-12-18T13:07:31;26.38;;;17.65;;
40623;SDS011;26325;48.594;11.650;2022-12-18T13:23:18;25.55;;;17.42;;
40623;SDS011;26325;48.594;11.650;2022-12-18T13:25:58;24.30;;;17.27;;
40623;SDS011;26325;48.594;11.650;2022-12-18T13:31:06;25.85;;;18.08;;
40623;SDS011;26325;48.594;11.650;2022-12-18T13:33:43;27.83;;;18.05;;
40623;SDS011;26325;48.594;11.650;2022-12-18T13:38:47;23.52;;;16.77;;
40623;SDS011;26325;48.594;11.650;2022-12-18T13:41:39;25.05;;;16.67;;
40623;SDS011;26325;48.594;11.650;2022-12-18T13:47:36;24.13;;;16.35;;
40623;SDS011;26325;48.594;11.650;2022-12-18T13:50:20;25.35;;;16.88;;
40623;SDS011;26325;48.594;11.650;2022-12-18T13:52:50;24.60;;;16.98;;
40623;SDS011;26325;48.594;11.650;2022-12-18T13:55:18;24.35;;;16.52;;
40623;SDS011;26325;48.594;11.650;2022-12-18T13:57:46;24.20;;;16.98;;
40623;SDS011;26325;48.594;11.650;2022-12-18T14:00:29;26.85;;;17.48;;
40623;SDS011;26325;48.594;11.650;2022-12-18T14:02:55;24.10;;;16.50;;
40623;SDS011;26325;48.594;11.650;2022-12-18T14:07:55;23.90;;;16.77;;
40623;SDS011;26325;48.594;11.650;2022-12-18T14:10:28;25.08;;;17.48;;
40623;SDS011;26325;48.594;11.650;2022-12-18T14:12:53;26.30;;;17.80;;
40623;SDS011;26325;48.594;11.650;2022-12-18T14:20:54;24.60;;;17.23;;
40623;SDS011;26325;48.594;11.650;2022-12-18T14:23:40;27.77;;;17.70;;
40623;SDS011;26325;48.594;11.650;2022-12-18T14:26:26;28.55;;;18.10;;
40623;SDS011;26325;48.594;11.650;2022-12-18T14:28:55;25.58;;;17.50;;
40623;SDS011;26325;48.594;11.650;2022-12-18T14:31:29;26.73;;;17.38;;
40623;SDS011;26325;48.594;11.650;2022-12-18T14:33:56;24.90;;;16.67;;
40623;SDS011;26325;48.594;11.650;2022-12-18T14:36:27;24.13;;;17.30;;
40623;SDS011;26325;48.594;11.650;2022-12-18T14:38:58;24.60;;;16.60;;
40623;SDS011;26325;48.594;11.650;2022-12-18T14:41:25;23.40;;;16.38;;
40623;SDS011;26325;48.594;11.650;2022-12-18T14:43:53;24.40;;;16.52;;
40623;SDS011;26325;48.594;11.650;2022-12-18T14:48:57;26.33;;;17.27;;
40623;SDS011;26325;48.594;11.650;2022-12-18T14:51:30;25.48;;;17.05;;
40623;SDS011;26325;48.594;11.650;2022-12-18T14:54:06;23.15;;;16.00;;
40623;SDS011;26325;48.594;11.650;2022-12-18T14:56:47;24.58;;;15.95;;
40623;SDS011;26325;48.594;11.650;2022-12-18T14:59:16;24.58;;;16.63;;
40623;SDS011;26325;48.594;11.650;2022-12-18T15:07:22;23.77;;;16.65;;
40623;SDS011;26325;48.594;11.650;2022-12-18T15:13:15;25.77;;;16.92;;
40623;SDS011;26325;48.594;11.650;2022-12-18T15:15:44;26.23;;;18.00;;
40623;SDS011;26325;48.594;11.650;2022-12-18T15:18:16;26.27;;;17.98;;
40623;SDS011;26325;48.594;11.650;2022-12-18T15:26:02;26.23;;;18.77;;
40623;SDS011;26325;48.594;11.650;2022-12-18T15:28:38;26.25;;;18.35;;
40623;SDS011;26325;48.594;11.650;2022-12-18T15:33:42;26.65;;;17.70;;
40623;SDS011;26325;48.594;11.650;2022-12-18T15:36:16;24.35;;;17.33;;
40623;SDS011;26325;48.594;11.650;2022-12-18T15:38:54;27.17;;;17.45;;
40623;SDS011;26325;48.594;11.650;2022-12-18T15:41:22;24.13;;;16.70;;
40623;SDS011;26325;48.594;11.650;2022-12-18T15:43:49;26.77;;;17.35;;
40623;SDS011;26325;48.594;11.650;2022-12-18T15:46:21;23.77;;;17.15;;
40623;SDS011;26325;48.594;11.650;2022-12-18T15:48:53;25.95;;;17.48;;
40623;SDS011;26325;48.594;11.650;2022-12-18T15:53:56;26.17;;;17.07;;
40623;SDS011;26325;48.594;11.650;2022-12-18T15:56:24;26.92;;;17.50;;
40623;SDS011;26325;48.594;11.650;2022-12-18T15:59:16;27.42;;;18.85;;
40623;SDS011;26325;48.594;11.650;2022-12-18T16:01:48;24.20;;;16.95;;
40623;SDS011;26325;48.594;11.650;2022-12-18T16:04:17;24.48;;;17.00;;
40623;SDS011;26325;48.594;11.650;2022-12-18T16:06:45;25.90;;;18.00;;
40623;SDS011;26325;48.594;11.650;2022-12-18T16:09:11;25.83;;;18.25;;
40623;SDS011;26325;48.594;11.650;2022-12-18T16:11:37;26.55;;;17.80;;
40623;SDS011;26325;48.594;11.650;2022-12-18T16:14:26;26.08;;;17.77;;
40623;SDS011;26325;48.594;11.650;2022-12-18T16:17:01;27.50;;;18.48;;
40623;SDS011;26325;48.594;11.650;2022-12-18T16:19:28;27.00;;;18.55;;
40623;SDS011;26325;48.594;11.650;2022-12-18T16:21:55;27.05;;;18.05;;
40623;SDS011;26325;48.594;11.650;2022-12-18T16:24:24;25.77;;;17.75;;
40623;SDS011;26325;48.594;11.650;2022-12-18T16:26:52;27.25;;;18.05;;
40623;SDS011;26325;48.594;11.650;2022-12-18T16:29:19;27.63;;;18.27;;
40623;SDS011;26325;48.594;11.650;2022-12-18T16:31:50;30.27;;;20.15;;
40623;SDS011;26325;48.594;11.650;2022-12-18T16:36:56;26.65;;;18.77;;
40623;SDS011;26325;48.594;11.650;2022-12-18T16:39:26;25.65;;;18.45;;
40623;SDS011;26325;48.594;11.650;2022-12-18T16:41:53;26.55;;;18.67;;
40623;SDS011;26325;48.594;11.650;2022-12-18T16:44:18;26.15;;;18.00;;
40623;SDS011;26325;48.594;11.650;2022-12-18T16:46:45;28.25;;;18.52;;
40623;SDS011;26325;48.594;11.650;2022-12-18T16:49:12;27.55;;;18.38;;
40623;SDS011;26325;48.594;11.650;2022-12-18T16:51:39;28.52;;;19.02;;
40623;SDS011;26325;48.594;11.650;2022-12-18T16:54:05;27.80;;;19.05;;